Time;durP1;ratioP1;P1;durP2;ratioP2;P2;SDS_P1;SDS_P2;PMS_P1;PMS_P2;Temp;Humidity;BMP_temperature;BMP_pressure;BME280_temperature;BME280_humidity;BME280_pressure;Samples;Min_cycle;Max_cycle;Signal;HPM_P1;HPM_P2
2022/07/02 00:00:20;;;;;;;5.68;1.70;;;14.60;99.90;;;;;;5037212;28;20037;-71
2022/07/02 00:02:50;;;;;;;4.47;1.50;;;14.50;99.90;;;;;;5048858;28;20049;-71
2022/07/02 00:05:20;;;;;;;5.28;1.73;;;14.50;99.90;;;;;;5053580;28;20040;-73
2022/07/02 00:07:46;;;;;;;5.15;1.65;;;14.50;99.90;;;;;;5033431;28;20053;-71
2022/07/02 00:10:14;;;;;;;4.28;1.42;;;14.50;99.90;;;;;;5013898;28;20106;-70
2022/07/02 00:12:40;;;;;;;5.45;1.80;;;14.50;99.90;;;;;;5033436;28;20054;-73
2022/07/02 00:15:06;;;;;;;5.15;1.90;;;14.50;99.90;;;;;;5047258;28;20503;-71
2022/07/02 00:17:32;;;;;;;6.05;2.13;;;14.50;99.90;;;;;;5038599;28;20060;-73
2022/07/02 00:20:00;;;;;;;6.65;2.38;;;14.50;99.90;;;;;;5033567;28;20053;-71
2022/07/02 00:22:28;;;;;;;5.25;2.03;;;14.50;99.90;;;;;;5047056;28;20080;-72
2022/07/02 00:24:53;;;;;;;6.38;2.15;;;14.30;99.90;;;;;;5033677;28;20053;-72
2022/07/02 00:27:19;;;;;;;6.57;2.20;;;14.20;99.90;;;;;;5048409;28;20060;-71
2022/07/02 00:29:58;;;;;;;6.63;1.92;;;14.10;99.90;;;;;;5044972;28;20112;-72
2022/07/02 00:32:33;;;;;;;4.43;1.60;;;14.10;99.90;;;;;;5034125;28;20057;-72
2022/07/02 00:35:06;;;;;;;4.93;2.03;;;14.10;99.90;;;;;;5034408;28;20116;-71
2022/07/02 00:37:32;;;;;;;4.40;1.70;;;14.00;99.90;;;;;;5035439;28;20053;-71
2022/07/02 00:39:58;;;;;;;4.22;1.70;;;14.10;99.90;;;;;;5042801;28;20045;-72
2022/07/02 00:42:51;;;;;;;3.80;1.40;;;14.10;99.90;;;;;;5033745;28;20139;-71
2022/07/02 00:45:17;;;;;;;5.18;1.55;;;14.10;99.90;;;;;;5033508;28;20045;-71
2022/07/02 00:47:43;;;;;;;3.85;1.70;;;14.10;99.90;;;;;;5020823;28;20053;-73
2022/07/02 00:50:09;;;;;;;7.68;2.72;;;14.10;99.90;;;;;;5054126;28;20373;-71
2022/07/02 00:52:35;;;;;;;4.63;1.70;;;14.20;99.90;;;;;;5044309;28;20114;-71
2022/07/02 00:55:02;;;;;;;6.18;2.00;;;14.10;99.90;;;;;;5033551;28;20465;-70
2022/07/02 00:57:28;;;;;;;6.10;2.20;;;14.10;99.90;;;;;;5025980;28;20373;-70
2022/07/02 00:59:54;;;;;;;6.75;2.10;;;14.10;99.90;;;;;;5041801;28;20455;-71
2022/07/02 01:02:21;;;;;;;4.45;1.63;;;14.00;99.90;;;;;;5043282;28;20128;-73
2022/07/02 01:04:49;;;;;;;5.95;1.60;;;13.90;99.90;;;;;;5038207;28;20507;-71
2022/07/02 01:07:15;;;;;;;5.43;1.90;;;13.90;99.90;;;;;;5032266;28;20051;-72
2022/07/02 01:12:30;;;;;;;8.02;2.92;;;14.00;99.90;;;;;;5033193;28;20500;-71
2022/07/02 01:14:57;;;;;;;5.47;2.47;;;13.90;99.90;;;;;;5032259;28;20058;-71
2022/07/02 01:17:23;;;;;;;6.40;2.28;;;13.80;99.90;;;;;;5037766;28;20061;-73
2022/07/02 01:19:49;;;;;;;4.82;2.08;;;13.80;99.90;;;;;;5040501;28;20045;-71
2022/07/02 01:22:19;;;;;;;5.22;2.10;;;13.80;99.90;;;;;;5031943;28;20060;-71
2022/07/02 01:24:48;;;;;;;5.55;1.90;;;13.80;99.90;;;;;;5034100;28;20382;-72
2022/07/02 01:27:14;;;;;;;5.93;2.08;;;13.90;99.90;;;;;;5035097;28;20040;-71
2022/07/02 01:29:40;;;;;;;5.25;2.10;;;13.90;99.90;;;;;;5032093;28;20053;-71
2022/07/02 01:32:07;;;;;;;6.05;2.85;;;13.90;99.90;;;;;;5045754;28;20187;-73
2022/07/02 01:34:36;;;;;;;6.78;2.10;;;13.90;99.90;;;;;;5015769;28;20131;-71
2022/07/02 01:37:03;;;;;;;6.50;2.90;;;13.90;99.90;;;;;;5046342;28;20492;-76
2022/07/02 01:39:28;;;;;;;9.13;2.50;;;13.90;99.90;;;;;;5045383;28;20061;-74
2022/07/02 01:41:54;;;;;;;5.93;2.58;;;13.80;99.90;;;;;;5052017;28;20187;-74
2022/07/02 01:44:20;;;;;;;6.35;2.15;;;13.70;99.90;;;;;;5050945;28;20052;-71
2022/07/02 01:46:46;;;;;;;5.43;2.20;;;13.70;99.90;;;;;;5044457;28;20044;-72
2022/07/02 01:49:12;;;;;;;5.80;2.17;;;13.70;99.90;;;;;;5035294;28;20053;-71
2022/07/02 01:51:38;;;;;;;6.05;3.08;;;13.70;99.90;;;;;;5039716;28;20048;-71
2022/07/02 01:54:03;;;;;;;7.07;2.10;;;13.60;99.90;;;;;;5022260;28;20476;-70
2022/07/02 01:56:33;;;;;;;5.72;2.20;;;13.60;99.90;;;;;;5046982;28;20037;-71
2022/07/02 01:58:59;;;;;;;5.32;2.20;;;13.60;99.90;;;;;;5030876;28;20056;-71
2022/07/02 02:01:24;;;;;;;6.18;2.40;;;13.60;99.90;;;;;;5044394;28;20045;-71
2022/07/02 02:03:50;;;;;;;4.32;1.80;;;13.60;99.90;;;;;;5031608;28;20481;-71
2022/07/02 02:06:16;;;;;;;6.50;3.67;;;13.60;99.90;;;;;;5046684;28;20128;-72
2022/07/02 02:08:42;;;;;;;6.03;2.20;;;13.50;99.90;;;;;;5031045;28;20075;-72
2022/07/02 02:11:07;;;;;;;5.40;2.13;;;13.40;99.90;;;;;;5045771;28;20055;-73
2022/07/02 02:13:33;;;;;;;5.15;1.83;;;13.50;99.90;;;;;;5044537;28;20050;-72
2022/07/02 02:15:59;;;;;;;5.65;2.22;;;13.50;99.90;;;;;;5014916;28;20057;-71
2022/07/02 02:18:24;;;;;;;5.55;2.22;;;13.50;99.90;;;;;;5028797;28;20053;-71
2022/07/02 02:20:50;;;;;;;7.00;3.10;;;13.50;99.90;;;;;;5042874;28;20049;-72
2022/07/02 02:23:16;;;;;;;5.60;2.10;;;13.50;99.90;;;;;;5048547;28;20041;-71
2022/07/02 02:25:41;;;;;;;6.10;2.38;;;13.50;99.90;;;;;;5041080;28;20131;-71
2022/07/02 02:28:07;;;;;;;7.75;4.35;;;13.50;99.90;;;;;;5035812;28;20500;-71
2022/07/02 02:30:33;;;;;;;5.82;2.13;;;13.50;99.90;;;;;;5051861;28;20132;-71
2022/07/02 02:32:58;;;;;;;7.90;4.00;;;13.50;99.90;;;;;;5038764;28;20056;-72
2022/07/02 02:35:24;;;;;;;5.95;2.60;;;13.50;99.90;;;;;;5031533;28;20094;-73
2022/07/02 02:37:49;;;;;;;6.40;3.00;;;13.50;99.90;;;;;;5056201;28;20044;-73
2022/07/02 02:40:15;;;;;;;6.57;2.50;;;13.40;99.90;;;;;;5040989;28;20200;-73
2022/07/02 02:42:41;;;;;;;7.05;3.58;;;13.50;99.90;;;;;;5037988;28;20107;-72
2022/07/02 02:45:07;;;;;;;7.95;2.88;;;13.40;99.90;;;;;;5054836;28;20055;-73
2022/07/02 02:47:33;;;;;;;7.30;3.50;;;13.40;99.90;;;;;;5053787;28;20128;-72
2022/07/02 02:49:58;;;;;;;9.07;4.50;;;13.40;99.90;;;;;;5035413;28;20129;-71
2022/07/02 02:52:24;;;;;;;8.63;4.47;;;13.30;99.90;;;;;;5051693;28;20053;-71
2022/07/02 02:54:50;;;;;;;6.03;2.72;;;13.30;99.90;;;;;;5035230;28;20052;-70
2022/07/02 02:57:15;;;;;;;5.63;2.75;;;13.30;99.90;;;;;;5034505;28;20123;-73
2022/07/02 02:59:41;;;;;;;7.20;3.70;;;13.30;99.90;;;;;;5018122;28;20126;-70
2022/07/02 03:02:07;;;;;;;8.45;3.10;;;13.30;99.90;;;;;;5028919;28;20048;-71
2022/07/02 03:04:33;;;;;;;8.20;4.03;;;13.20;99.90;;;;;;5054603;28;20063;-71
2022/07/02 03:06:59;;;;;;;9.82;4.47;;;13.20;99.90;;;;;;5047063;28;20456;-71
2022/07/02 03:09:25;;;;;;;6.20;2.65;;;13.20;99.90;;;;;;5028491;28;20469;-71
2022/07/02 03:11:50;;;;;;;5.70;3.08;;;13.10;99.90;;;;;;5034784;28;20076;-71
2022/07/02 03:14:16;;;;;;;5.85;2.88;;;13.10;99.90;;;;;;5034257;28;20081;-71
2022/07/02 03:16:42;;;;;;;12.27;6.07;;;13.10;99.90;;;;;;5017840;28;20052;-71
2022/07/02 03:19:07;;;;;;;9.82;5.63;;;13.10;99.90;;;;;;5044515;28;20305;-71
2022/07/02 03:21:33;;;;;;;6.30;3.47;;;13.10;99.90;;;;;;5041323;28;20068;-72
2022/07/02 03:23:59;;;;;;;5.88;3.00;;;13.10;99.90;;;;;;5053063;28;20033;-71
2022/07/02 03:26:24;;;;;;;9.95;5.15;;;13.10;99.90;;;;;;5034281;28;20201;-72
2022/07/02 03:28:50;;;;;;;7.97;4.22;;;13.10;99.90;;;;;;5048656;28;20041;-70
2022/07/02 03:31:16;;;;;;;10.52;5.53;;;13.10;99.90;;;;;;5043465;28;20049;-70
2022/07/02 03:33:41;;;;;;;6.00;3.33;;;13.10;99.90;;;;;;5047552;28;20512;-71
2022/07/02 03:36:07;;;;;;;7.93;3.95;;;13.10;99.90;;;;;;5035489;28;20049;-70
2022/07/02 03:38:33;;;;;;;7.38;3.28;;;13.10;99.90;;;;;;5035662;28;20135;-71
2022/07/02 03:40:59;;;;;;;6.80;3.95;;;13.00;99.90;;;;;;5046340;28;20044;-72
2022/07/02 03:43:24;;;;;;;9.27;5.32;;;13.00;99.90;;;;;;5047012;28;20049;-76
2022/07/02 03:45:50;;;;;;;8.43;5.35;;;12.90;99.90;;;;;;5033420;28;20041;-73
2022/07/02 03:48:16;;;;;;;7.78;3.60;;;13.00;99.90;;;;;;5040106;28;20081;-71
2022/07/02 03:50:42;;;;;;;12.57;5.80;;;12.90;99.90;;;;;;5034139;28;20046;-70
2022/07/02 03:53:09;;;;;;;8.43;4.82;;;12.90;99.90;;;;;;5031024;28;20488;-71
2022/07/02 03:55:34;;;;;;;6.28;3.15;;;12.90;99.90;;;;;;5035188;28;20042;-71
2022/07/02 03:58:01;;;;;;;6.10;3.15;;;12.90;99.90;;;;;;5030113;28;20499;-70
2022/07/02 04:00:27;;;;;;;6.95;3.63;;;12.90;99.90;;;;;;5034123;28;20175;-70
2022/07/02 04:02:52;;;;;;;8.70;5.03;;;12.90;99.90;;;;;;5050947;28;20044;-70
2022/07/02 04:05:18;;;;;;;9.50;5.80;;;12.90;99.90;;;;;;5053941;28;20060;-70
2022/07/02 04:07:44;;;;;;;9.55;4.72;;;12.90;99.90;;;;;;5035910;28;20144;-72
2022/07/02 04:10:10;;;;;;;8.30;5.35;;;12.90;99.90;;;;;;5054004;28;20049;-71
2022/07/02 04:12:36;;;;;;;10.88;7.35;;;12.90;99.90;;;;;;5052894;28;20055;-71
2022/07/02 04:15:01;;;;;;;11.07;6.93;;;12.90;99.90;;;;;;5051799;28;20049;-72
2022/07/02 04:17:27;;;;;;;12.68;6.72;;;12.90;99.90;;;;;;5053433;28;20057;-70
2022/07/02 04:19:54;;;;;;;12.07;6.53;;;12.90;99.90;;;;;;5036999;28;20514;-70
2022/07/02 04:22:19;;;;;;;9.32;6.32;;;12.90;99.90;;;;;;5043003;28;20057;-71
2022/07/02 04:24:45;;;;;;;11.20;7.28;;;12.90;99.90;;;;;;5033094;28;20447;-71
2022/07/02 04:27:11;;;;;;;11.07;6.10;;;12.90;99.90;;;;;;5019151;28;20088;-72
2022/07/02 04:29:36;;;;;;;12.52;7.22;;;12.90;99.90;;;;;;5046007;28;20049;-71
2022/07/02 04:32:02;;;;;;;11.18;6.75;;;13.00;99.90;;;;;;5052339;28;20174;-71
2022/07/02 04:34:28;;;;;;;9.07;4.93;;;13.00;99.90;;;;;;5042882;28;20062;-71
2022/07/02 04:36:54;;;;;;;11.38;6.45;;;13.00;99.90;;;;;;5046877;28;20091;-70
2022/07/02 04:39:19;;;;;;;11.18;6.53;;;13.10;99.90;;;;;;5016724;28;20056;-70
2022/07/02 04:41:45;;;;;;;11.75;6.65;;;13.10;99.90;;;;;;5032944;28;20041;-72
2022/07/02 04:44:12;;;;;;;9.70;6.80;;;13.10;99.90;;;;;;5029727;28;20048;-73
2022/07/02 04:46:38;;;;;;;12.43;7.65;;;13.10;99.90;;;;;;5046771;28;20316;-71
2022/07/02 04:49:03;;;;;;;12.50;7.22;;;13.20;99.90;;;;;;5035356;28;20117;-71
2022/07/02 04:51:29;;;;;;;9.52;7.68;;;13.20;99.90;;;;;;5030446;28;20056;-71
2022/07/02 04:53:55;;;;;;;12.07;7.07;;;13.20;99.90;;;;;;5024484;28;20046;-71
2022/07/02 04:56:21;;;;;;;11.32;8.15;;;13.40;99.90;;;;;;5063269;28;20124;-70
2022/07/02 04:58:46;;;;;;;13.02;8.02;;;13.50;99.90;;;;;;5031893;28;20041;-70
2022/07/02 05:01:12;;;;;;;10.45;6.43;;;13.90;99.90;;;;;;5016424;28;20126;-71
2022/07/02 05:03:38;;;;;;;12.10;5.82;;;14.30;99.90;;;;;;5021245;28;20101;-72
2022/07/02 05:06:03;;;;;;;9.98;5.85;;;14.70;99.90;;;;;;5046341;28;20059;-70
2022/07/02 05:08:29;;;;;;;9.25;5.28;;;15.10;99.90;;;;;;5055305;28;20053;-72
2022/07/02 05:10:55;;;;;;;10.95;5.22;;;15.70;99.90;;;;;;5040651;28;20091;-70
2022/07/02 05:13:22;;;;;;;9.00;5.47;;;16.40;99.90;;;;;;5045347;28;20037;-71
2022/07/02 05:15:49;;;;;;;10.10;5.18;;;16.90;99.90;;;;;;5043015;28;20065;-71
2022/07/02 05:18:15;;;;;;;9.05;4.50;;;17.50;99.90;;;;;;5035003;28;20103;-70
2022/07/02 05:20:41;;;;;;;8.23;4.25;;;18.30;99.90;;;;;;5052272;28;20068;-71
2022/07/02 05:23:07;;;;;;;8.68;4.25;;;18.60;99.90;;;;;;5050575;28;20056;-70
2022/07/02 05:25:32;;;;;;;6.88;4.13;;;19.00;99.90;;;;;;5019388;28;20053;-70
2022/07/02 05:27:58;;;;;;;9.13;4.20;;;19.20;99.90;;;;;;5024624;28;20053;-70
2022/07/02 05:30:24;;;;;;;8.18;3.90;;;19.30;99.90;;;;;;5050694;28;20045;-71
2022/07/02 05:32:49;;;;;;;10.63;4.20;;;19.70;99.90;;;;;;5024924;28;20045;-70
2022/07/02 05:35:15;;;;;;;7.88;3.75;;;19.70;99.90;;;;;;5012933;28;20339;-70
2022/07/02 05:37:41;;;;;;;7.40;3.97;;;20.40;99.90;;;;;;5040294;28;20053;-72
2022/07/02 05:40:07;;;;;;;6.35;3.28;;;21.00;99.90;;;;;;5037003;28;20124;-71
2022/07/02 05:42:33;;;;;;;9.38;4.00;;;21.40;99.90;;;;;;5014736;28;20053;-72
2022/07/02 05:44:59;;;;;;;8.80;4.07;;;21.60;99.90;;;;;;5045212;28;20098;-71
2022/07/02 05:47:24;;;;;;;8.63;3.60;;;22.00;99.00;;;;;;5045938;28;20069;-72
2022/07/02 05:49:50;;;;;;;7.28;3.65;;;22.50;98.10;;;;;;5038060;28;20430;-71
2022/07/02 05:52:17;;;;;;;8.15;3.90;;;22.40;97.00;;;;;;5043532;28;20369;-70
2022/07/02 05:54:45;;;;;;;6.22;3.03;;;22.40;96.30;;;;;;5035910;28;20102;-72
2022/07/02 05:57:11;;;;;;;7.85;3.58;;;23.00;95.40;;;;;;5040078;28;20046;-70
2022/07/02 05:59:37;;;;;;;7.18;3.13;;;23.20;93.50;;;;;;5033837;28;20064;-70
2022/07/02 06:02:04;;;;;;;7.28;3.30;;;22.80;92.80;;;;;;5038408;28;20098;-71
2022/07/02 06:04:31;;;;;;;6.10;2.90;;;22.70;92.10;;;;;;5047794;28;20049;-71
2022/07/02 06:07:43;;;;;;;6.45;2.53;;;22.70;90.90;;;;;;5044722;28;20052;-71
2022/07/02 06:09:44;;;;;;;6.25;2.47;;;22.90;92.00;;;;;;5023487;28;20118;-70
2022/07/02 06:12:10;;;;;;;6.93;2.63;;;22.90;90.00;;;;;;5041945;28;20124;-72
2022/07/02 06:14:36;;;;;;;6.93;2.72;;;22.70;90.00;;;;;;5029267;28;20560;-72
2022/07/02 06:17:01;;;;;;;6.47;2.17;;;22.80;89.80;;;;;;5051300;28;20103;-73
2022/07/02 06:19:27;;;;;;;7.03;2.20;;;22.70;88.10;;;;;;5038699;28;20068;-71
2022/07/02 06:21:53;;;;;;;6.90;2.28;;;23.00;89.00;;;;;;5028221;28;20130;-73
2022/07/02 06:24:19;;;;;;;6.20;2.00;;;23.00;86.30;;;;;;5043396;28;20049;-71
2022/07/02 06:26:45;;;;;;;6.78;2.10;;;23.30;87.40;;;;;;5033595;28;20061;-73
2022/07/02 06:29:10;;;;;;;7.28;2.50;;;23.30;86.70;;;;;;5041911;28;20079;-71
2022/07/02 06:31:36;;;;;;;7.65;2.40;;;23.20;83.80;;;;;;5045325;28;20408;-72
2022/07/02 06:34:05;;;;;;;6.72;2.13;;;23.20;86.70;;;;;;5037762;28;20049;-72
2022/07/02 06:36:31;;;;;;;6.07;2.20;;;23.40;84.20;;;;;;5051308;28;20387;-72
2022/07/02 06:38:57;;;;;;;6.57;2.50;;;23.80;83.90;;;;;;5046284;28;20045;-73
2022/07/02 06:44:07;;;;;;;8.10;2.30;;;23.80;82.50;;;;;;5036026;28;20052;-72
2022/07/02 06:46:34;;;;;;;9.80;2.20;;;23.80;78.30;;;;;;5039737;28;20089;-73
2022/07/02 06:49:00;;;;;;;7.38;2.20;;;23.70;78.70;;;;;;5030829;28;20033;-72
2022/07/02 06:51:26;;;;;;;6.20;2.10;;;23.40;77.90;;;;;;5050155;28;20068;-75
2022/07/02 06:53:55;;;;;;;6.95;1.92;;;23.30;79.20;;;;;;5041754;28;20465;-73
2022/07/02 06:56:20;;;;;;;7.30;1.80;;;23.80;80.40;;;;;;5038280;28;20049;-72
2022/07/02 06:58:46;;;;;;;7.25;1.70;;;23.90;78.60;;;;;;5030309;28;20495;-72
2022/07/02 07:01:12;;;;;;;5.65;1.70;;;24.00;77.20;;;;;;5034478;28;20045;-72
2022/07/02 07:03:37;;;;;;;5.93;1.50;;;24.00;76.30;;;;;;5034311;28;20056;-71
2022/07/02 07:06:03;;;;;;;7.05;1.60;;;23.90;72.20;;;;;;5037025;28;20050;-72
2022/07/02 07:08:29;;;;;;;6.40;1.55;;;24.00;71.90;;;;;;5045023;28;20072;-72
2022/07/02 07:10:54;;;;;;;6.82;1.58;;;24.20;71.20;;;;;;5043849;28;20060;-72
2022/07/02 07:13:20;;;;;;;6.10;1.50;;;24.20;69.60;;;;;;5032430;28;20045;-74
2022/07/02 07:15:46;;;;;;;5.10;1.58;;;24.40;70.60;;;;;;5032149;28;20388;-73
2022/07/02 07:18:12;;;;;;;7.35;1.85;;;24.40;71.20;;;;;;5060853;28;20056;-72
2022/07/02 07:20:38;;;;;;;5.65;1.52;;;24.40;70.30;;;;;;5019897;28;20081;-73
2022/07/02 07:23:04;;;;;;;5.65;1.27;;;24.50;71.40;;;;;;5047845;28;20142;-74
2022/07/02 07:25:30;;;;;;;5.15;1.30;;;24.50;65.20;;;;;;5042180;28;20049;-74
2022/07/02 07:27:56;;;;;;;6.30;1.10;;;24.20;65.80;;;;;;5053622;28;20063;-72
2022/07/02 07:30:22;;;;;;;5.72;1.40;;;24.00;65.20;;;;;;5036443;28;20049;-75
2022/07/02 07:32:47;;;;;;;5.43;1.25;;;24.10;63.20;;;;;;5035438;28;20068;-74
2022/07/02 07:35:13;;;;;;;5.20;1.30;;;24.10;65.90;;;;;;5051612;28;20494;-73
2022/07/02 07:37:39;;;;;;;3.80;1.10;;;24.20;65.40;;;;;;5045312;28;20057;-73
2022/07/02 07:40:06;;;;;;;4.10;1.20;;;24.30;64.40;;;;;;5035233;28;20041;-73
2022/07/02 07:42:31;;;;;;;4.20;1.20;;;24.30;64.40;;;;;;5046692;28;20053;-73
2022/07/02 07:44:57;;;;;;;5.45;1.30;;;24.40;64.00;;;;;;5035837;28;20116;-72
2022/07/02 07:47:23;;;;;;;4.63;1.15;;;24.50;65.40;;;;;;5033387;28;20057;-72
2022/07/02 07:49:49;;;;;;;8.82;1.20;;;24.40;63.60;;;;;;5034324;28;20053;-75
2022/07/02 07:52:14;;;;;;;4.15;1.00;;;24.40;62.10;;;;;;5046826;28;20045;-72
2022/07/02 07:54:40;;;;;;;3.10;0.88;;;24.50;63.10;;;;;;5040668;28;20045;-73
2022/07/02 07:57:07;;;;;;;4.72;1.10;;;24.80;62.60;;;;;;5053381;28;20052;-76
2022/07/02 07:59:33;;;;;;;4.40;1.00;;;24.90;61.40;;;;;;5038647;28;20049;-74
2022/07/02 08:01:59;;;;;;;4.15;0.90;;;25.20;62.30;;;;;;5035534;28;20060;-72
2022/07/02 08:04:24;;;;;;;4.65;1.00;;;25.20;61.90;;;;;;5047553;28;20480;-72
2022/07/02 08:06:50;;;;;;;3.08;1.00;;;25.10;62.30;;;;;;5039682;28;20084;-75
2022/07/02 08:09:16;;;;;;;4.32;1.00;;;25.30;61.90;;;;;;5040883;28;20057;-72
2022/07/02 08:11:42;;;;;;;4.38;1.05;;;25.30;62.20;;;;;;5034705;28;20045;-72
2022/07/02 08:14:08;;;;;;;3.40;1.05;;;25.40;60.50;;;;;;5042521;28;20087;-72
2022/07/02 08:16:34;;;;;;;3.72;0.95;;;25.60;61.30;;;;;;5037728;28;20103;-72
2022/07/02 08:19:00;;;;;;;4.18;1.00;;;25.70;60.10;;;;;;5044245;28;20053;-72
2022/07/02 08:21:26;;;;;;;3.85;0.80;;;25.60;58.70;;;;;;5013329;28;20037;-73
2022/07/02 08:23:51;;;;;;;4.38;0.90;;;25.80;58.20;;;;;;5040146;28;20050;-73
2022/07/02 08:26:17;;;;;;;2.85;0.68;;;26.00;58.70;;;;;;5040655;28;20044;-75
2022/07/02 08:28:43;;;;;;;4.18;0.82;;;25.80;57.10;;;;;;5036078;28;20041;-72
2022/07/02 08:31:09;;;;;;;3.45;0.70;;;25.90;57.00;;;;;;5053348;28;20041;-72
2022/07/02 08:33:35;;;;;;;4.03;0.82;;;25.80;56.90;;;;;;5037394;28;20056;-72
2022/07/02 08:36:01;;;;;;;3.22;0.80;;;25.70;57.10;;;;;;5052339;28;20037;-73
2022/07/02 08:38:27;;;;;;;3.08;0.75;;;25.60;55.10;;;;;;5037256;28;20050;-77
2022/07/02 08:40:53;;;;;;;5.45;0.90;;;25.50;55.40;;;;;;5020645;28;20172;-72
2022/07/02 08:43:28;;;;;;;3.08;0.85;;;25.40;55.40;;;;;;5032632;28;20087;-75
2022/07/02 08:45:55;;;;;;;4.45;0.90;;;25.50;55.70;;;;;;5032301;28;20116;-72
2022/07/02 08:48:23;;;;;;;3.30;0.90;;;25.50;55.00;;;;;;5034006;28;20099;-73
2022/07/02 08:50:50;;;;;;;4.55;0.90;;;25.50;56.40;;;;;;5047115;28;20049;-72
2022/07/02 08:53:18;;;;;;;5.13;0.90;;;25.50;56.30;;;;;;5038539;28;20052;-73
2022/07/02 08:55:44;;;;;;;5.38;1.00;;;25.40;56.10;;;;;;5040774;28;20468;-72
2022/07/02 08:58:11;;;;;;;3.55;0.90;;;25.50;56.80;;;;;;5050170;28;20052;-72
2022/07/02 09:00:38;;;;;;;4.55;0.90;;;25.60;56.60;;;;;;5035839;28;20055;-72
2022/07/02 09:03:05;;;;;;;3.55;0.90;;;25.50;56.80;;;;;;5053384;28;20472;-73
2022/07/02 09:05:32;;;;;;;4.50;0.80;;;25.60;57.20;;;;;;5052660;28;20111;-73
2022/07/02 09:07:59;;;;;;;3.03;0.70;;;25.80;56.90;;;;;;5022985;28;20053;-73
2022/07/02 09:10:26;;;;;;;3.20;0.90;;;25.80;56.70;;;;;;5041186;28;20549;-71
2022/07/02 09:12:54;;;;;;;5.45;0.90;;;25.80;54.80;;;;;;5051203;28;20094;-73
2022/07/02 09:15:20;;;;;;;3.58;0.90;;;25.80;56.10;;;;;;5032675;28;20570;-73
2022/07/02 09:17:46;;;;;;;3.03;0.80;;;25.90;56.90;;;;;;5045389;28;20057;-72
2022/07/02 09:20:13;;;;;;;3.47;0.90;;;26.00;55.60;;;;;;5034214;28;20041;-72
2022/07/02 09:22:47;;;;;;;3.70;0.90;;;26.00;56.00;;;;;;5015887;28;20132;-73
2022/07/02 09:25:21;;;;;;;5.38;1.00;;;26.00;55.70;;;;;;5050441;28;20088;-72
2022/07/02 09:27:55;;;;;;;4.85;1.00;;;26.00;57.20;;;;;;5051452;28;20044;-72
2022/07/02 09:30:21;;;;;;;5.03;0.90;;;25.90;55.70;;;;;;5053366;28;20049;-72
2022/07/02 09:32:47;;;;;;;3.90;0.95;;;26.00;55.80;;;;;;5041553;28;20072;-73
2022/07/02 09:35:20;;;;;;;6.53;1.00;;;26.20;56.00;;;;;;5045878;28;20045;-72
2022/07/02 09:37:50;;;;;;;4.63;1.00;;;26.10;55.20;;;;;;5032758;28;20400;-71
2022/07/02 09:40:17;;;;;;;3.38;0.80;;;26.30;56.00;;;;;;5015384;28;20120;-71
2022/07/02 09:42:48;;;;;;;4.72;1.00;;;26.20;53.70;;;;;;5014769;28;20042;-71
2022/07/02 09:45:15;;;;;;;4.63;1.00;;;25.60;54.50;;;;;;5015234;28;20396;-74
2022/07/02 09:47:49;;;;;;;4.82;1.00;;;25.60;56.10;;;;;;5044585;28;20292;-72
2022/07/02 09:50:17;;;;;;;4.22;1.08;;;25.70;55.30;;;;;;5015825;28;20057;-72
2022/07/02 09:52:52;;;;;;;3.53;0.93;;;26.00;57.20;;;;;;5044993;28;20088;-72
2022/07/02 09:55:32;;;;;;;4.47;1.00;;;26.30;54.80;;;;;;5021144;28;20049;-72
2022/07/02 09:58:00;;;;;;;4.75;1.17;;;26.40;56.10;;;;;;5029966;28;20051;-73
2022/07/02 10:00:28;;;;;;;7.28;1.27;;;26.40;55.70;;;;;;5051465;28;20049;-73
2022/07/02 10:02:56;;;;;;;5.05;1.08;;;26.50;55.00;;;;;;5032217;28;20049;-73
2022/07/02 10:05:28;;;;;;;4.82;1.02;;;26.70;56.50;;;;;;5033000;28;20089;-76
2022/07/02 10:07:55;;;;;;;6.03;1.00;;;26.90;56.30;;;;;;5045961;28;20049;-73
2022/07/02 10:10:35;;;;;;;4.25;1.00;;;27.10;57.10;;;;;;5044004;28;20056;-72
2022/07/02 10:13:01;;;;;;;7.45;1.65;;;27.20;55.60;;;;;;5003895;28;20401;-72
2022/07/02 10:15:30;;;;;;;4.07;1.10;;;27.30;55.20;;;;;;5031547;28;20480;-71
2022/07/02 10:17:56;;;;;;;4.68;1.05;;;26.90;53.50;;;;;;5061953;28;20131;-73
2022/07/02 10:20:23;;;;;;;3.60;1.02;;;26.60;54.40;;;;;;5045026;28;20069;-74
2022/07/02 10:22:52;;;;;;;4.55;1.10;;;26.00;54.60;;;;;;5032279;28;20443;-72
2022/07/02 10:25:19;;;;;;;3.75;1.08;;;25.60;54.60;;;;;;5050304;28;20044;-72
2022/07/02 10:27:48;;;;;;;4.65;1.00;;;25.20;56.10;;;;;;5030064;28;20049;-73
2022/07/02 10:30:21;;;;;;;3.40;0.90;;;25.30;57.00;;;;;;5049664;28;20059;-72
2022/07/02 10:33:20;;;;;;;3.60;0.98;;;25.60;57.80;;;;;;5031138;28;20049;-74
2022/07/02 10:35:48;;;;;;;5.65;1.20;;;25.40;55.70;;;;;;5032398;28;20038;-73
2022/07/02 10:38:14;;;;;;;5.72;1.20;;;25.40;55.60;;;;;;5031269;28;20060;-72
2022/07/02 10:40:49;;;;;;;3.75;1.17;;;25.70;56.30;;;;;;5050020;28;20037;-73
2022/07/02 10:43:18;;;;;;;5.43;1.00;;;25.90;56.40;;;;;;5049966;28;20096;-72
2022/07/02 10:45:45;;;;;;;4.22;1.10;;;25.70;54.60;;;;;;5037009;28;20091;-73
2022/07/02 10:48:12;;;;;;;3.28;0.93;;;25.80;55.90;;;;;;5041942;28;20045;-72
2022/07/02 10:50:42;;;;;;;5.75;1.17;;;25.90;57.20;;;;;;5027304;28;20068;-73
2022/07/02 10:53:21;;;;;;;3.40;1.00;;;26.20;55.30;;;;;;5031575;28;20152;-74
2022/07/02 10:56:04;;;;;;;4.70;1.10;;;26.30;57.20;;;;;;5034155;28;20111;-73
2022/07/02 10:58:31;;;;;;;4.75;1.10;;;26.60;56.80;;;;;;5046891;28;20061;-72
2022/07/02 11:01:09;;;;;;;5.07;1.30;;;27.00;53.90;;;;;;5035118;28;20049;-74
2022/07/02 11:03:35;;;;;;;4.72;0.95;;;26.80;54.60;;;;;;5054455;28;20128;-72
2022/07/02 11:06:20;;;;;;;5.25;1.00;;;26.80;55.50;;;;;;5041564;28;20128;-77
2022/07/02 11:08:50;;;;;;;5.43;1.00;;;27.00;55.60;;;;;;5043637;28;20526;-72
2022/07/02 11:11:22;;;;;;;4.57;1.10;;;26.90;53.50;;;;;;5039236;28;20053;-71
2022/07/02 11:13:58;;;;;;;4.63;1.02;;;26.50;53.50;;;;;;5034738;28;20466;-72
2022/07/02 11:16:39;;;;;;;4.88;1.15;;;26.20;53.30;;;;;;5049822;28;20049;-73
2022/07/02 11:19:12;;;;;;;5.60;1.25;;;25.90;55.10;;;;;;5044967;28;20045;-72
2022/07/02 11:21:39;;;;;;;4.80;1.00;;;25.70;55.40;;;;;;5048547;28;20052;-71
2022/07/02 11:24:06;;;;;;;5.32;1.10;;;25.50;55.50;;;;;;5043513;28;20094;-73
2022/07/02 11:26:32;;;;;;;4.80;1.20;;;25.40;55.50;;;;;;5037809;28;20102;-72
2022/07/02 11:29:03;;;;;;;4.45;1.00;;;25.00;54.60;;;;;;5029879;28;20087;-72
2022/07/02 11:31:29;;;;;;;3.70;1.05;;;24.80;55.60;;;;;;5036184;28;20159;-71
2022/07/02 11:33:56;;;;;;;6.20;1.20;;;24.70;57.90;;;;;;5048045;28;20045;-73
2022/07/02 11:36:23;;;;;;;5.68;1.05;;;24.70;58.90;;;;;;5034712;28;20076;-73
2022/07/02 11:38:50;;;;;;;4.43;1.10;;;24.90;60.80;;;;;;5033934;28;20120;-72
2022/07/02 11:41:29;;;;;;;4.18;1.10;;;25.10;59.30;;;;;;5034261;28;20072;-72
2022/07/02 11:43:59;;;;;;;4.72;1.10;;;25.10;58.10;;;;;;5016967;28;20080;-71
2022/07/02 11:46:29;;;;;;;5.90;1.20;;;25.00;58.20;;;;;;5034778;28;20061;-71
2022/07/02 11:48:58;;;;;;;5.53;1.20;;;24.90;59.20;;;;;;5033872;28;20128;-71
2022/07/02 11:51:24;;;;;;;4.05;1.20;;;24.80;59.40;;;;;;5033977;28;20052;-72
2022/07/02 11:53:58;;;;;;;5.13;1.15;;;24.80;59.80;;;;;;5033990;28;20111;-71
2022/07/02 11:56:24;;;;;;;4.15;1.10;;;25.10;61.70;;;;;;5037672;28;20080;-72
2022/07/02 11:58:50;;;;;;;5.15;1.40;;;25.50;61.70;;;;;;5044284;28;20084;-71
2022/07/02 12:01:30;;;;;;;4.53;1.38;;;25.70;59.30;;;;;;5036744;28;20052;-72
2022/07/02 12:03:58;;;;;;;4.93;1.30;;;25.50;58.80;;;;;;5053769;28;20084;-73
2022/07/02 12:06:26;;;;;;;3.33;1.02;;;25.30;58.30;;;;;;5036314;28;20088;-72
2022/07/02 12:08:54;;;;;;;4.50;1.23;;;25.10;59.50;;;;;;5033322;28;20055;-72
2022/07/02 12:11:21;;;;;;;6.63;1.20;;;25.00;59.40;;;;;;5047072;28;20499;-73
2022/07/02 12:13:47;;;;;;;4.97;1.30;;;25.00;60.00;;;;;;5032864;28;20049;-71
2022/07/02 12:16:25;;;;;;;5.20;1.27;;;24.90;60.30;;;;;;5047211;28;20060;-73
2022/07/02 12:18:59;;;;;;;6.00;1.20;;;24.80;59.70;;;;;;5054408;28;20092;-71
2022/07/02 12:21:34;;;;;;;4.20;1.13;;;24.80;60.10;;;;;;5040208;28;20041;-71
2022/07/02 12:24:01;;;;;;;4.43;1.10;;;24.90;62.50;;;;;;5054812;28;20049;-72
2022/07/02 12:26:29;;;;;;;6.75;1.30;;;25.10;61.00;;;;;;5052479;28;20060;-71
2022/07/02 12:31:45;;;;;;;4.78;1.20;;;25.00;60.20;;;;;;5049333;28;20140;-71
2022/07/02 12:34:10;;;;;;;4.22;1.17;;;25.00;60.70;;;;;;5045110;28;20056;-72
2022/07/02 12:36:57;;;;;;;4.68;1.20;;;25.10;59.60;;;;;;5033267;28;20136;-71
2022/07/02 12:39:38;;;;;;;5.60;1.20;;;25.20;58.10;;;;;;5033071;28;20057;-71
2022/07/02 12:42:18;;;;;;;3.90;1.13;;;25.10;59.10;;;;;;5032268;28;20048;-75
2022/07/02 12:45:03;;;;;;;4.85;1.10;;;25.10;58.60;;;;;;5016897;28;20143;-71
2022/07/02 12:47:34;;;;;;;5.28;1.10;;;25.10;60.90;;;;;;5046637;28;20049;-71
2022/07/02 12:50:06;;;;;;;4.25;1.10;;;25.30;62.10;;;;;;5052878;28;20052;-71
2022/07/02 12:52:44;;;;;;;5.07;1.20;;;25.60;58.60;;;;;;5038557;28;20045;-71
2022/07/02 12:55:28;;;;;;;5.32;1.10;;;25.40;59.50;;;;;;5016245;28;20484;-72